sensor_id;sensor_type;location;lat;lon;timestamp;pressure;altitude;pressure_sealevel;temperature;humidity
56292;BME280;54008;53.606;9.462;2022-10-31T00:00:27;101961.91;;;11.83;100.00
56292;BME280;54008;53.606;9.462;2022-10-31T00:02:53;101966.97;;;11.86;100.00
56292;BME280;54008;53.606;9.462;2022-10-31T00:05:18;101958.28;;;11.83;100.00
56292;BME280;54008;53.606;9.462;2022-10-31T00:07:43;101943.69;;;11.96;100.00
56292;BME280;54008;53.606;9.462;2022-10-31T00:10:08;101942.84;;;11.95;100.00
56292;BME280;54008;53.606;9.462;2022-10-31T00:12:33;101946.16;;;12.04;100.00
56292;BME280;54008;53.606;9.462;2022-10-31T00:14:59;101940.03;;;12.02;100.00
56292;BME280;54008;53.606;9.462;2022-10-31T00:17:24;101945.06;;;12.11;100.00
56292;BME280;54008;53.606;9.462;2022-10-31T00:19:49;101938.72;;;12.11;100.00
56292;BME280;54008;53.606;9.462;2022-10-31T00:22:14;101945.09;;;12.05;100.00
56292;BME280;54008;53.606;9.462;2022-10-31T00:24:39;101941.06;;;12.07;100.00
56292;BME280;54008;53.606;9.462;2022-10-31T00:27:05;101950.56;;;12.11;100.00
56292;BME280;54008;53.606;9.462;2022-10-31T00:29:30;101943.56;;;12.16;100.00
56292;BME280;54008;53.606;9.462;2022-10-31T00:31:55;101943.09;;;12.25;100.00
56292;BME280;54008;53.606;9.462;2022-10-31T00:34:20;101932.91;;;12.32;100.00
56292;BME280;54008;53.606;9.462;2022-10-31T00:36:45;101932.91;;;12.32;100.00
56292;BME280;54008;53.606;9.462;2022-10-31T00:39:10;101935.56;;;12.39;100.00
56292;BME280;54008;53.606;9.462;2022-10-31T00:41:36;101937.69;;;12.44;100.00
56292;BME280;54008;53.606;9.462;2022-10-31T00:44:01;101939.75;;;12.48;100.00
56292;BME280;54008;53.606;9.462;2022-10-31T00:46:26;101941.22;;;12.51;100.00
56292;BME280;54008;53.606;9.462;2022-10-31T00:48:51;101947.78;;;12.50;100.00
56292;BME280;54008;53.606;9.462;2022-10-31T00:51:16;101949.94;;;12.48;100.00
56292;BME280;54008;53.606;9.462;2022-10-31T00:53:42;101956.69;;;12.52;100.00
56292;BME280;54008;53.606;9.462;2022-10-31T00:56:07;101954.38;;;12.49;100.00
56292;BME280;54008;53.606;9.462;2022-10-31T00:58:32;101955.84;;;12.51;100.00
56292;BME280;54008;53.606;9.462;2022-10-31T01:00:57;101949.94;;;12.48;100.00
56292;BME280;54008;53.606;9.462;2022-10-31T01:03:30;101954.97;;;12.51;100.00
56292;BME280;54008;53.606;9.462;2022-10-31T01:08:25;101972.59;;;12.43;100.00
56292;BME280;54008;53.606;9.462;2022-10-31T01:11:05;101966.91;;;12.38;100.00
56292;BME280;54008;53.606;9.462;2022-10-31T01:13:30;101975.22;;;12.31;100.00
56292;BME280;54008;53.606;9.462;2022-10-31T01:15:59;101976.28;;;12.30;100.00
56292;BME280;54008;53.606;9.462;2022-10-31T01:18:24;101982.59;;;12.37;100.00
56292;BME280;54008;53.606;9.462;2022-10-31T01:20:56;101983.16;;;12.46;100.00
56292;BME280;54008;53.606;9.462;2022-10-31T01:23:22;101984.47;;;12.44;100.00
56292;BME280;54008;53.606;9.462;2022-10-31T01:25:47;101982.56;;;12.44;100.00
56292;BME280;54008;53.606;9.462;2022-10-31T01:28:12;101984.63;;;12.49;100.00
56292;BME280;54008;53.606;9.462;2022-10-31T01:30:37;101976.94;;;12.57;100.00
56292;BME280;54008;53.606;9.462;2022-10-31T01:33:03;101983.09;;;12.59;100.00
56292;BME280;54008;53.606;9.462;2022-10-31T01:35:28;101981.19;;;12.60;100.00
56292;BME280;54008;53.606;9.462;2022-10-31T01:37:53;101978.44;;;12.60;100.00
56292;BME280;54008;53.606;9.462;2022-10-31T01:40:18;101989.28;;;12.55;100.00
56292;BME280;54008;53.606;9.462;2022-10-31T01:42:43;101984.81;;;12.54;100.00
56292;BME280;54008;53.606;9.462;2022-10-31T01:45:09;101988.22;;;12.49;100.00
56292;BME280;54008;53.606;9.462;2022-10-31T01:47:39;101984.63;;;12.49;100.00
56292;BME280;54008;53.606;9.462;2022-10-31T01:50:09;101979.56;;;12.46;100.00
56292;BME280;54008;53.606;9.462;2022-10-31T01:52:40;101985.19;;;12.32;100.00
56292;BME280;54008;53.606;9.462;2022-10-31T01:55:09;101991.91;;;12.36;100.00
56292;BME280;54008;53.606;9.462;2022-10-31T01:57:37;101989.41;;;12.28;100.00
56292;BME280;54008;53.606;9.462;2022-10-31T02:00:06;101994.72;;;12.23;100.00
56292;BME280;54008;53.606;9.462;2022-10-31T02:02:32;101987.72;;;12.27;100.00
56292;BME280;54008;53.606;9.462;2022-10-31T02:04:57;101996.63;;;12.29;100.00
56292;BME280;54008;53.606;9.462;2022-10-31T02:07:30;101996.81;;;12.28;100.00
56292;BME280;54008;53.606;9.462;2022-10-31T02:09:57;101991.97;;;12.23;100.00
56292;BME280;54008;53.606;9.462;2022-10-31T02:12:23;101995.81;;;12.22;100.00
56292;BME280;54008;53.606;9.462;2022-10-31T02:14:49;101993.72;;;12.18;100.00
56292;BME280;54008;53.606;9.462;2022-10-31T02:17:14;101990.75;;;12.12;100.00
56292;BME280;54008;53.606;9.462;2022-10-31T02:22:59;101984.28;;;12.00;100.00
56292;BME280;54008;53.606;9.462;2022-10-31T02:25:44;101992.97;;;11.91;100.00
56292;BME280;54008;53.606;9.462;2022-10-31T02:28:30;101991.28;;;11.83;100.00
56292;BME280;54008;53.606;9.462;2022-10-31T02:31:18;101991.94;;;11.78;100.00
56292;BME280;54008;53.606;9.462;2022-10-31T02:33:52;101993.84;;;11.71;100.00
56292;BME280;54008;53.606;9.462;2022-10-31T02:36:23;101986.47;;;11.65;100.00
56292;BME280;54008;53.606;9.462;2022-10-31T02:38:59;101986.94;;;11.62;100.00
56292;BME280;54008;53.606;9.462;2022-10-31T02:41:31;101993.03;;;11.57;100.00
56292;BME280;54008;53.606;9.462;2022-10-31T02:46:46;101999.00;;;11.48;100.00
56292;BME280;54008;53.606;9.462;2022-10-31T02:49:26;101995.84;;;11.37;100.00
56292;BME280;54008;53.606;9.462;2022-10-31T02:51:52;101997.94;;;11.42;100.00
56292;BME280;54008;53.606;9.462;2022-10-31T02:54:18;101994.78;;;11.38;100.00
56292;BME280;54008;53.606;9.462;2022-10-31T02:56:44;101991.41;;;11.36;100.00
56292;BME280;54008;53.606;9.462;2022-10-31T02:59:11;101997.75;;;11.30;100.00
56292;BME280;54008;53.606;9.462;2022-10-31T03:09:42;102016.38;;;11.28;100.00
56292;BME280;54008;53.606;9.462;2022-10-31T03:17:20;101996.50;;;11.33;100.00
56292;BME280;54008;53.606;9.462;2022-10-31T03:19:47;101996.91;;;11.30;100.00
56292;BME280;54008;53.606;9.462;2022-10-31T03:22:19;102006.66;;;11.32;100.00
56292;BME280;54008;53.606;9.462;2022-10-31T03:24:46;101999.44;;;11.31;100.00
56292;BME280;54008;53.606;9.462;2022-10-31T03:27:14;102000.72;;;11.35;100.00
56292;BME280;54008;53.606;9.462;2022-10-31T03:29:40;101999.00;;;11.34;100.00
56292;BME280;54008;53.606;9.462;2022-10-31T03:32:12;102012.13;;;11.32;100.00
56292;BME280;54008;53.606;9.462;2022-10-31T03:34:39;102015.50;;;11.34;100.00
56292;BME280;54008;53.606;9.462;2022-10-31T03:37:06;102020.56;;;11.37;100.00
56292;BME280;54008;53.606;9.462;2022-10-31T03:39:32;102018.88;;;11.43;100.00
56292;BME280;54008;53.606;9.462;2022-10-31T03:42:06;102021.41;;;11.38;100.00
56292;BME280;54008;53.606;9.462;2022-10-31T03:44:32;102028.41;;;11.34;100.00
56292;BME280;54008;53.606;9.462;2022-10-31T03:46:58;102029.25;;;11.41;100.00
56292;BME280;54008;53.606;9.462;2022-10-31T03:49:24;102035.78;;;11.40;100.00
56292;BME280;54008;53.606;9.462;2022-10-31T03:52:00;102041.06;;;11.41;100.00
56292;BME280;54008;53.606;9.462;2022-10-31T03:54:33;102035.78;;;11.33;100.00
56292;BME280;54008;53.606;9.462;2022-10-31T03:57:48;102035.56;;;11.35;100.00
56292;BME280;54008;53.606;9.462;2022-10-31T03:59:59;102035.16;;;11.31;100.00
56292;BME280;54008;53.606;9.462;2022-10-31T04:02:29;102037.47;;;11.34;100.00
56292;BME280;54008;53.606;9.462;2022-10-31T04:04:55;102035.38;;;11.36;100.00
56292;BME280;54008;53.606;9.462;2022-10-31T04:07:21;102040.22;;;11.41;100.00
56292;BME280;54008;53.606;9.462;2022-10-31T04:09:48;102035.16;;;11.45;100.00
56292;BME280;54008;53.606;9.462;2022-10-31T04:12:15;102038.97;;;11.44;100.00
56292;BME280;54008;53.606;9.462;2022-10-31T04:14:41;102042.75;;;11.43;100.00
56292;BME280;54008;53.606;9.462;2022-10-31T04:17:07;102042.13;;;11.40;100.00
56292;BME280;54008;53.606;9.462;2022-10-31T04:19:34;102042.13;;;11.40;100.00
56292;BME280;54008;53.606;9.462;2022-10-31T04:21:59;102054.38;;;11.38;100.00
56292;BME280;54008;53.606;9.462;2022-10-31T04:24:25;102051.44;;;11.39;100.00
56292;BME280;54008;53.606;9.462;2022-10-31T04:26:50;102049.13;;;11.36;100.00
56292;BME280;54008;53.606;9.462;2022-10-31T04:29:15;102050.78;;;11.37;100.00
56292;BME280;54008;53.606;9.462;2022-10-31T04:31:40;102042.97;;;11.34;100.00
56292;BME280;54008;53.606;9.462;2022-10-31T04:34:06;102044.47;;;11.30;100.00
56292;BME280;54008;53.606;9.462;2022-10-31T04:36:32;102051.63;;;11.31;100.00
56292;BME280;54008;53.606;9.462;2022-10-31T04:38:58;102049.75;;;11.25;100.00
56292;BME280;54008;53.606;9.462;2022-10-31T04:41:23;102049.34;;;11.22;100.00
56292;BME280;54008;53.606;9.462;2022-10-31T04:43:48;102055.47;;;11.17;100.00
56292;BME280;54008;53.606;9.462;2022-10-31T04:46:13;102056.94;;;11.13;100.00
56292;BME280;54008;53.606;9.462;2022-10-31T04:48:38;102060.72;;;11.12;100.00
56292;BME280;54008;53.606;9.462;2022-10-31T04:51:04;102055.66;;;11.09;100.00
56292;BME280;54008;53.606;9.462;2022-10-31T04:53:29;102063.28;;;11.07;100.00
56292;BME280;54008;53.606;9.462;2022-10-31T04:55:54;102066.03;;;11.07;100.00
56292;BME280;54008;53.606;9.462;2022-10-31T04:58:19;102058.19;;;11.04;100.00
56292;BME280;54008;53.606;9.462;2022-10-31T05:00:44;102061.59;;;11.06;100.00
56292;BME280;54008;53.606;9.462;2022-10-31T05:03:10;102058.84;;;11.06;100.00
56292;BME280;54008;53.606;9.462;2022-10-31T05:05:35;102050.59;;;11.06;100.00
56292;BME280;54008;53.606;9.462;2022-10-31T05:08:00;102046.16;;;11.05;100.00
56292;BME280;54008;53.606;9.462;2022-10-31T05:10:26;102049.53;;;11.07;100.00
56292;BME280;54008;53.606;9.462;2022-10-31T05:13:01;102042.97;;;11.01;100.00
56292;BME280;54008;53.606;9.462;2022-10-31T05:15:27;102038.34;;;11.02;100.00
56292;BME280;54008;53.606;9.462;2022-10-31T05:17:53;102035.81;;;11.07;100.00
56292;BME280;54008;53.606;9.462;2022-10-31T05:20:19;102034.53;;;11.03;100.00
56292;BME280;54008;53.606;9.462;2022-10-31T05:22:54;102032.22;;;11.00;100.00
56292;BME280;54008;53.606;9.462;2022-10-31T05:25:20;102040.44;;;11.00;100.00
56292;BME280;54008;53.606;9.462;2022-10-31T05:27:47;102031.38;;;10.99;100.00
56292;BME280;54008;53.606;9.462;2022-10-31T05:30:13;102039.19;;;10.96;100.00
56292;BME280;54008;53.606;9.462;2022-10-31T05:32:39;102044.88;;;10.94;100.00
56292;BME280;54008;53.606;9.462;2022-10-31T05:35:05;102045.28;;;10.98;100.00
56292;BME280;54008;53.606;9.462;2022-10-31T05:37:33;102050.59;;;10.99;100.00
56292;BME280;54008;53.606;9.462;2022-10-31T05:40:02;102049.75;;;10.99;100.00
56292;BME280;54008;53.606;9.462;2022-10-31T05:42:27;102042.56;;;10.98;100.00
56292;BME280;54008;53.606;9.462;2022-10-31T05:44:52;102056.94;;;11.00;100.00
56292;BME280;54008;53.606;9.462;2022-10-31T05:47:17;102060.50;;;11.00;100.00
56292;BME280;54008;53.606;9.462;2022-10-31T05:49:43;102061.34;;;11.01;100.00
56292;BME280;54008;53.606;9.462;2022-10-31T05:52:08;102063.06;;;11.02;100.00
56292;BME280;54008;53.606;9.462;2022-10-31T05:54:33;102063.69;;;11.04;100.00
56292;BME280;54008;53.606;9.462;2022-10-31T05:56:58;102050.16;;;10.96;100.00
56292;BME280;54008;53.606;9.462;2022-10-31T05:59:23;102046.59;;;10.95;100.00
56292;BME280;54008;53.606;9.462;2022-10-31T06:01:48;102048.25;;;10.96;100.00
56292;BME280;54008;53.606;9.462;2022-10-31T06:04:14;102051.00;;;10.96;100.00
56292;BME280;54008;53.606;9.462;2022-10-31T06:06:39;102051.44;;;11.00;100.00
56292;BME280;54008;53.606;9.462;2022-10-31T06:09:04;102052.50;;;10.99;100.00
56292;BME280;54008;53.606;9.462;2022-10-31T06:11:29;102057.13;;;11.05;100.00
56292;BME280;54008;53.606;9.462;2022-10-31T06:13:54;102059.69;;;11.06;100.00
56292;BME280;54008;53.606;9.462;2022-10-31T06:16:19;102073.59;;;11.05;100.00
56292;BME280;54008;53.606;9.462;2022-10-31T06:18:45;102070.44;;;11.08;100.00
56292;BME280;54008;53.606;9.462;2022-10-31T06:21:10;102060.53;;;11.07;100.00
56292;BME280;54008;53.606;9.462;2022-10-31T06:23:35;102065.78;;;11.08;100.00
56292;BME280;54008;53.606;9.462;2022-10-31T06:26:01;102074.47;;;11.12;100.00
56292;BME280;54008;53.606;9.462;2022-10-31T06:28:26;102075.75;;;11.09;100.00
56292;BME280;54008;53.606;9.462;2022-10-31T06:30:51;102082.09;;;11.10;100.00
56292;BME280;54008;53.606;9.462;2022-10-31T06:33:16;102079.34;;;11.10;100.00
56292;BME280;54008;53.606;9.462;2022-10-31T06:35:45;102087.34;;;11.11;100.00
56292;BME280;54008;53.606;9.462;2022-10-31T06:38:10;102080.38;;;11.09;100.00
56292;BME280;54008;53.606;9.462;2022-10-31T06:40:35;102090.94;;;11.12;100.00
56292;BME280;54008;53.606;9.462;2022-10-31T06:43:01;102097.09;;;11.14;100.00
56292;BME280;54008;53.606;9.462;2022-10-31T06:45:26;102101.72;;;11.13;100.00
56292;BME280;54008;53.606;9.462;2022-10-31T06:47:52;102107.22;;;11.13;100.00
56292;BME280;54008;53.606;9.462;2022-10-31T06:50:18;102112.72;;;11.13;100.00
56292;BME280;54008;53.606;9.462;2022-10-31T06:52:43;102120.13;;;11.13;100.00
56292;BME280;54008;53.606;9.462;2022-10-31T06:55:08;102120.31;;;11.11;100.00
56292;BME280;54008;53.606;9.462;2022-10-31T06:57:33;102128.34;;;11.13;100.00
56292;BME280;54008;53.606;9.462;2022-10-31T06:59:58;102125.81;;;11.11;100.00
56292;BME280;54008;53.606;9.462;2022-10-31T07:02:23;102132.56;;;11.09;100.00
56292;BME280;54008;53.606;9.462;2022-10-31T07:04:49;102130.03;;;11.14;100.00
56292;BME280;54008;53.606;9.462;2022-10-31T07:07:14;102134.88;;;11.12;100.00
56292;BME280;54008;53.606;9.462;2022-10-31T07:09:39;102139.97;;;11.15;100.00
56292;BME280;54008;53.606;9.462;2022-10-31T07:12:05;102140.81;;;11.15;100.00
56292;BME280;54008;53.606;9.462;2022-10-31T07:14:30;102134.25;;;11.10;100.00
56292;BME280;54008;53.606;9.462;2022-10-31T07:16:55;102146.09;;;11.10;100.00
56292;BME280;54008;53.606;9.462;2022-10-31T07:19:20;102142.25;;;11.05;100.00
56292;BME280;54008;53.606;9.462;2022-10-31T07:21:45;102140.81;;;11.02;100.00
56292;BME280;54008;53.606;9.462;2022-10-31T07:24:11;102142.72;;;11.02;100.00
56292;BME280;54008;53.606;9.462;2022-10-31T07:26:36;102146.47;;;11.01;100.00
56292;BME280;54008;53.606;9.462;2022-10-31T07:29:01;102143.13;;;10.99;100.00
56292;BME280;54008;53.606;9.462;2022-10-31T07:31:26;102145.22;;;10.97;100.00
56292;BME280;54008;53.606;9.462;2022-10-31T07:33:51;102148.59;;;10.99;100.00
56292;BME280;54008;53.606;9.462;2022-10-31T07:36:17;102147.97;;;10.97;100.00
56292;BME280;54008;53.606;9.462;2022-10-31T07:38:42;102146.06;;;10.90;100.00
56292;BME280;54008;53.606;9.462;2022-10-31T07:41:07;102151.97;;;10.87;100.00
56292;BME280;54008;53.606;9.462;2022-10-31T07:43:32;102161.84;;;10.82;100.00
56292;BME280;54008;53.606;9.462;2022-10-31T07:45:57;102165.00;;;10.79;100.00
56292;BME280;54008;53.606;9.462;2022-10-31T07:48:23;102169.91;;;10.83;100.00
56292;BME280;54008;53.606;9.462;2022-10-31T07:50:48;102170.13;;;10.88;100.00
56292;BME280;54008;53.606;9.462;2022-10-31T07:53:13;102172.47;;;10.91;100.00
56292;BME280;54008;53.606;9.462;2022-10-31T07:55:39;102168.44;;;10.87;100.00
56292;BME280;54008;53.606;9.462;2022-10-31T07:58:06;102174.09;;;10.86;100.00
56292;BME280;54008;53.606;9.462;2022-10-31T08:00:32;102170.94;;;10.82;100.00
56292;BME280;54008;53.606;9.462;2022-10-31T08:03:01;102168.44;;;10.87;100.00
56292;BME280;54008;53.606;9.462;2022-10-31T08:05:26;102157.03;;;10.90;100.00
56292;BME280;54008;53.606;9.462;2022-10-31T08:07:52;102152.59;;;10.89;100.00
56292;BME280;54008;53.606;9.462;2022-10-31T08:10:17;102162.47;;;10.77;100.00
56292;BME280;54008;53.606;9.462;2022-10-31T08:12:42;102158.06;;;10.89;100.00
56292;BME280;54008;53.606;9.462;2022-10-31T08:15:08;102163.81;;;10.95;100.00
56292;BME280;54008;53.606;9.462;2022-10-31T08:17:37;102162.13;;;11.00;100.00
56292;BME280;54008;53.606;9.462;2022-10-31T08:20:04;102165.94;;;11.06;100.00
56292;BME280;54008;53.606;9.462;2022-10-31T08:22:30;102166.38;;;11.09;100.00
56292;BME280;54008;53.606;9.462;2022-10-31T08:24:55;102158.34;;;11.14;100.00
56292;BME280;54008;53.606;9.462;2022-10-31T08:27:20;102161.94;;;11.15;100.00
56292;BME280;54008;53.606;9.462;2022-10-31T08:29:45;102159.00;;;11.16;100.00
56292;BME280;54008;53.606;9.462;2022-10-31T08:32:11;102156.66;;;11.27;100.00
56292;BME280;54008;53.606;9.462;2022-10-31T08:34:36;102157.53;;;11.21;100.00
56292;BME280;54008;53.606;9.462;2022-10-31T08:37:01;102162.19;;;11.33;100.00
56292;BME280;54008;53.606;9.462;2022-10-31T08:39:26;102157.09;;;11.24;100.00
56292;BME280;54008;53.606;9.462;2022-10-31T08:41:51;102147.59;;;11.26;100.00
56292;BME280;54008;53.606;9.462;2022-10-31T08:44:16;102157.09;;;11.30;100.00
56292;BME280;54008;53.606;9.462;2022-10-31T08:46:42;102159.22;;;11.35;100.00
56292;BME280;54008;53.606;9.462;2022-10-31T08:49:07;102153.75;;;11.61;100.00
56292;BME280;54008;53.606;9.462;2022-10-31T08:51:32;102151.81;;;11.69;100.00
56292;BME280;54008;53.606;9.462;2022-10-31T08:53:57;102150.13;;;11.68;100.00
56292;BME280;54008;53.606;9.462;2022-10-31T08:56:24;102147.63;;;11.66;100.00
56292;BME280;54008;53.606;9.462;2022-10-31T08:58:50;102144.00;;;11.72;100.00
56292;BME280;54008;53.606;9.462;2022-10-31T09:01:16;102146.75;;;11.72;100.00
56292;BME280;54008;53.606;9.462;2022-10-31T09:03:41;102132.56;;;11.75;100.00
56292;BME280;54008;53.606;9.462;2022-10-31T09:06:06;102132.19;;;11.85;100.00
56292;BME280;54008;53.606;9.462;2022-10-31T09:08:33;102125.59;;;11.79;100.00
56292;BME280;54008;53.606;9.462;2022-10-31T09:10:59;102118.22;;;11.60;100.00
56292;BME280;54008;53.606;9.462;2022-10-31T09:13:24;102117.38;;;11.66;100.00
56292;BME280;54008;53.606;9.462;2022-10-31T09:15:50;102123.50;;;11.55;100.00
56292;BME280;54008;53.606;9.462;2022-10-31T09:18:17;102123.50;;;11.55;100.00
56292;BME280;54008;53.606;9.462;2022-10-31T09:20:44;102126.47;;;11.53;100.00
56292;BME280;54008;53.606;9.462;2022-10-31T09:23:11;102128.78;;;11.70;100.00
56292;BME280;54008;53.606;9.462;2022-10-31T09:25:37;102129.22;;;11.86;100.00
56292;BME280;54008;53.606;9.462;2022-10-31T09:28:03;102129.63;;;11.83;100.00
56292;BME280;54008;53.606;9.462;2022-10-31T09:30:29;102129.63;;;11.70;100.00
56292;BME280;54008;53.606;9.462;2022-10-31T09:32:56;102134.28;;;11.63;100.00
56292;BME280;54008;53.606;9.462;2022-10-31T09:35:21;102130.47;;;11.77;100.00
56292;BME280;54008;53.606;9.462;2022-10-31T09:37:46;102141.28;;;11.85;100.00
56292;BME280;54008;53.606;9.462;2022-10-31T09:40:11;102139.13;;;12.01;100.00
56292;BME280;54008;53.606;9.462;2022-10-31T09:42:41;102140.16;;;12.13;100.00
56292;BME280;54008;53.606;9.462;2022-10-31T09:45:15;102142.88;;;12.26;100.00
56292;BME280;54008;53.606;9.462;2022-10-31T09:47:47;102141.81;;;12.27;100.00
56292;BME280;54008;53.606;9.462;2022-10-31T09:50:17;102135.03;;;12.30;100.00
56292;BME280;54008;53.606;9.462;2022-10-31T09:52:45;102131.44;;;12.29;100.00
56292;BME280;54008;53.606;9.462;2022-10-31T09:55:17;102134.63;;;12.26;100.00
56292;BME280;54008;53.606;9.462;2022-10-31T09:57:44;102140.56;;;12.23;100.00
56292;BME280;54008;53.606;9.462;2022-10-31T10:00:14;102144.81;;;12.19;100.00
56292;BME280;54008;53.606;9.462;2022-10-31T10:02:48;102141.22;;;12.19;100.00
56292;BME280;54008;53.606;9.462;2022-10-31T10:05:38;102143.13;;;12.18;100.00
56292;BME280;54008;53.606;9.462;2022-10-31T10:08:21;102149.47;;;12.25;100.00
56292;BME280;54008;53.606;9.462;2022-10-31T10:10:49;102140.13;;;12.26;100.00
56292;BME280;54008;53.606;9.462;2022-10-31T10:13:23;102138.00;;;12.28;100.00
56292;BME280;54008;53.606;9.462;2022-10-31T10:15:55;102145.22;;;12.29;100.00
56292;BME280;54008;53.606;9.462;2022-10-31T10:18:44;102135.88;;;12.30;100.00
56292;BME280;54008;53.606;9.462;2022-10-31T10:21:16;102136.28;;;12.41;100.00
56292;BME280;54008;53.606;9.462;2022-10-31T10:28:36;102136.03;;;12.49;100.00
56292;BME280;54008;53.606;9.462;2022-10-31T10:33:39;102134.09;;;12.56;100.00
56292;BME280;54008;53.606;9.462;2022-10-31T10:36:06;102122.25;;;12.55;100.00
56292;BME280;54008;53.606;9.462;2022-10-31T10:40:59;102117.16;;;12.52;100.00
56292;BME280;54008;53.606;9.462;2022-10-31T10:43:29;102108.63;;;12.67;100.00
56292;BME280;54008;53.606;9.462;2022-10-31T10:46:03;102103.56;;;12.64;100.00
56292;BME280;54008;53.606;9.462;2022-10-31T10:49:05;102115.44;;;12.58;100.00
56292;BME280;54008;53.606;9.462;2022-10-31T10:51:37;102104.19;;;12.66;100.00
56292;BME280;54008;53.606;9.462;2022-10-31T10:59:10;102092.50;;;12.71;100.00
56292;BME280;54008;53.606;9.462;2022-10-31T11:01:36;102084.22;;;12.77;100.00
56292;BME280;54008;53.606;9.462;2022-10-31T11:04:02;102083.16;;;12.78;100.00
56292;BME280;54008;53.606;9.462;2022-10-31T11:06:27;102080.75;;;12.89;100.00
56292;BME280;54008;53.606;9.462;2022-10-31T11:08:53;102077.59;;;12.85;100.00
56292;BME280;54008;53.606;9.462;2022-10-31T11:13:51;102076.72;;;12.84;100.00
56292;BME280;54008;53.606;9.462;2022-10-31T11:18:52;102081.91;;;12.74;100.00
56292;BME280;54008;53.606;9.462;2022-10-31T11:21:23;102081.91;;;12.74;100.00
56292;BME280;54008;53.606;9.462;2022-10-31T11:23:49;102077.44;;;12.73;100.00
56292;BME280;54008;53.606;9.462;2022-10-31T11:26:18;102077.63;;;12.78;100.00
56292;BME280;54008;53.606;9.462;2022-10-31T11:28:43;102081.00;;;12.80;100.00
56292;BME280;54008;53.606;9.462;2022-10-31T11:31:11;102080.00;;;12.75;100.00
56292;BME280;54008;53.606;9.462;2022-10-31T11:33:38;102080.41;;;12.78;100.00
56292;BME280;54008;53.606;9.462;2022-10-31T11:39:05;102082.88;;;12.86;100.00
56292;BME280;54008;53.606;9.462;2022-10-31T11:41:38;102081.00;;;12.80;100.00
56292;BME280;54008;53.606;9.462;2022-10-31T11:44:04;102072.34;;;12.77;100.00
56292;BME280;54008;53.606;9.462;2022-10-31T11:48:59;102063.44;;;12.81;100.00
56292;BME280;54008;53.606;9.462;2022-10-31T11:51:26;102062.53;;;12.88;100.00
56292;BME280;54008;53.606;9.462;2022-10-31T11:53:53;102066.06;;;12.95;100.00
56292;BME280;54008;53.606;9.462;2022-10-31T11:56:19;102072.78;;;13.05;100.00
56292;BME280;54008;53.606;9.462;2022-10-31T11:58:54;102064.75;;;13.04;100.00
56292;BME280;54008;53.606;9.462;2022-10-31T12:01:24;102054.63;;;12.98;100.00
56292;BME280;54008;53.606;9.462;2022-10-31T12:06:34;102050.38;;;12.95;100.00
56292;BME280;54008;53.606;9.462;2022-10-31T12:09:00;102049.75;;;13.00;100.00
56292;BME280;54008;53.606;9.462;2022-10-31T12:11:42;102052.22;;;13.08;100.00
56292;BME280;54008;53.606;9.462;2022-10-31T12:35:13;102055.31;;;13.18;100.00
56292;BME280;54008;53.606;9.462;2022-10-31T12:38:02;102049.63;;;13.13;100.00
56292;BME280;54008;53.606;9.462;2022-10-31T12:48:20;102036.84;;;12.94;100.00
56292;BME280;54008;53.606;9.462;2022-10-31T12:50:55;102048.47;;;12.96;100.00
56292;BME280;54008;53.606;9.462;2022-10-31T12:53:26;102047.22;;;12.92;100.00
56292;BME280;54008;53.606;9.462;2022-10-31T12:58:33;102051.22;;;12.96;100.00
56292;BME280;54008;53.606;9.462;2022-10-31T13:01:07;102045.72;;;12.96;100.00
56292;BME280;54008;53.606;9.462;2022-10-31T13:03:38;102039.59;;;12.94;100.00
56292;BME280;54008;53.606;9.462;2022-10-31T13:06:07;102037.25;;;12.97;100.00
56292;BME280;54008;53.606;9.462;2022-10-31T13:08:42;102033.66;;;12.97;100.00
56292;BME280;54008;53.606;9.462;2022-10-31T13:11:10;102029.59;;;12.99;100.00
56292;BME280;54008;53.606;9.462;2022-10-31T13:13:41;102022.69;;;12.90;100.00
56292;BME280;54008;53.606;9.462;2022-10-31T13:16:17;102014.03;;;12.86;100.00
56292;BME280;54008;53.606;9.462;2022-10-31T13:18:47;102010.81;;;12.90;100.00
56292;BME280;54008;53.606;9.462;2022-10-31T13:21:21;102014.19;;;12.92;100.00
56292;BME280;54008;53.606;9.462;2022-10-31T13:23:49;102021.84;;;12.90;100.00
56292;BME280;54008;53.606;9.462;2022-10-31T13:26:22;102016.50;;;12.95;100.00
56292;BME280;54008;53.606;9.462;2022-10-31T13:28:57;102010.59;;;12.91;100.00
56292;BME280;54008;53.606;9.462;2022-10-31T13:31:24;102011.00;;;12.95;100.00
56292;BME280;54008;53.606;9.462;2022-10-31T13:33:52;101997.50;;;12.86;100.00
56292;BME280;54008;53.606;9.462;2022-10-31T13:36:25;102003.44;;;12.83;100.00
56292;BME280;54008;53.606;9.462;2022-10-31T13:41:54;101991.91;;;12.68;100.00
56292;BME280;54008;53.606;9.462;2022-10-31T13:44:22;101983.22;;;12.71;100.00
56292;BME280;54008;53.606;9.462;2022-10-31T13:46:51;101976.91;;;12.64;100.00
56292;BME280;54008;53.606;9.462;2022-10-31T13:51:46;101979.94;;;12.56;100.00
56292;BME280;54008;53.606;9.462;2022-10-31T13:54:32;101968.88;;;12.63;100.00
56292;BME280;54008;53.606;9.462;2022-10-31T13:56:58;101963.09;;;12.71;100.00
56292;BME280;54008;53.606;9.462;2022-10-31T13:59:24;101957.00;;;12.62;100.00
56292;BME280;54008;53.606;9.462;2022-10-31T14:45:38;101898.88;;;12.20;100.00
56292;BME280;54008;53.606;9.462;2022-10-31T14:48:16;101891.06;;;12.17;100.00
56292;BME280;54008;53.606;9.462;2022-10-31T14:51:14;101884.72;;;12.17;100.00
56292;BME280;54008;53.606;9.462;2022-10-31T14:53:48;101887.47;;;12.17;100.00